sensor_id;sensor_type;location;lat;lon;timestamp;temperature;humidity
29731;DHT22;16639;51.488;0.152;2023-10-08T00:00:48;17.90;99.90
29731;DHT22;16639;51.488;0.152;2023-10-08T00:03:21;17.80;99.90
29731;DHT22;16639;51.488;0.152;2023-10-08T00:05:49;17.80;99.90
29731;DHT22;16639;51.488;0.152;2023-10-08T00:08:18;17.80;99.90
29731;DHT22;16639;51.488;0.152;2023-10-08T00:10:46;17.80;99.90
29731;DHT22;16639;51.488;0.152;2023-10-08T00:13:15;17.70;99.90
29731;DHT22;16639;51.488;0.152;2023-10-08T00:15:43;17.70;99.90
29731;DHT22;16639;51.488;0.152;2023-10-08T00:18:22;17.70;99.90
29731;DHT22;16639;51.488;0.152;2023-10-08T00:20:50;17.70;99.90
29731;DHT22;16639;51.488;0.152;2023-10-08T00:23:24;17.70;99.90
29731;DHT22;16639;51.488;0.152;2023-10-08T00:25:54;17.70;99.90
29731;DHT22;16639;51.488;0.152;2023-10-08T00:28:22;17.70;99.90
29731;DHT22;16639;51.488;0.152;2023-10-08T00:30:50;17.80;99.90
29731;DHT22;16639;51.488;0.152;2023-10-08T00:33:20;17.70;99.90
29731;DHT22;16639;51.488;0.152;2023-10-08T00:35:49;17.70;99.90
29731;DHT22;16639;51.488;0.152;2023-10-08T00:38:17;17.70;99.90
29731;DHT22;16639;51.488;0.152;2023-10-08T00:40:48;17.70;99.90
29731;DHT22;16639;51.488;0.152;2023-10-08T00:43:32;17.70;99.90
29731;DHT22;16639;51.488;0.152;2023-10-08T00:46:07;17.70;99.90
29731;DHT22;16639;51.488;0.152;2023-10-08T00:49:17;17.70;99.90
29731;DHT22;16639;51.488;0.152;2023-10-08T00:51:55;17.70;99.90
29731;DHT22;16639;51.488;0.152;2023-10-08T00:54:29;17.70;99.90
29731;DHT22;16639;51.488;0.152;2023-10-08T00:57:00;17.70;99.90
29731;DHT22;16639;51.488;0.152;2023-10-08T00:59:32;17.70;99.90
29731;DHT22;16639;51.488;0.152;2023-10-08T01:02:13;17.70;99.90
29731;DHT22;16639;51.488;0.152;2023-10-08T01:04:47;17.70;99.90
29731;DHT22;16639;51.488;0.152;2023-10-08T01:07:15;17.70;99.90
29731;DHT22;16639;51.488;0.152;2023-10-08T01:09:44;17.60;99.90
29731;DHT22;16639;51.488;0.152;2023-10-08T01:12:21;17.70;99.90
29731;DHT22;16639;51.488;0.152;2023-10-08T01:15:01;17.60;99.90
29731;DHT22;16639;51.488;0.152;2023-10-08T01:17:43;17.60;99.90
29731;DHT22;16639;51.488;0.152;2023-10-08T01:20:20;17.60;99.90
29731;DHT22;16639;51.488;0.152;2023-10-08T01:23:07;17.60;99.90
29731;DHT22;16639;51.488;0.152;2023-10-08T01:25:44;17.60;99.90
29731;DHT22;16639;51.488;0.152;2023-10-08T01:28:24;17.60;99.90
29731;DHT22;16639;51.488;0.152;2023-10-08T01:30:57;17.60;99.90
29731;DHT22;16639;51.488;0.152;2023-10-08T01:33:28;17.60;99.90
29731;DHT22;16639;51.488;0.152;2023-10-08T01:35:57;17.60;99.90
29731;DHT22;16639;51.488;0.152;2023-10-08T01:38:36;17.60;99.90
29731;DHT22;16639;51.488;0.152;2023-10-08T01:41:03;17.50;99.90
29731;DHT22;16639;51.488;0.152;2023-10-08T01:43:37;17.50;99.90
29731;DHT22;16639;51.488;0.152;2023-10-08T01:46:06;17.50;99.90
29731;DHT22;16639;51.488;0.152;2023-10-08T01:48:39;17.50;99.90
29731;DHT22;16639;51.488;0.152;2023-10-08T01:51:06;17.50;99.90
29731;DHT22;16639;51.488;0.152;2023-10-08T01:53:39;17.40;99.90
29731;DHT22;16639;51.488;0.152;2023-10-08T01:56:06;17.50;99.90
29731;DHT22;16639;51.488;0.152;2023-10-08T01:58:34;17.50;99.90
29731;DHT22;16639;51.488;0.152;2023-10-08T02:01:02;17.40;99.90
29731;DHT22;16639;51.488;0.152;2023-10-08T02:03:32;17.40;99.90
29731;DHT22;16639;51.488;0.152;2023-10-08T02:06:01;17.50;99.90
29731;DHT22;16639;51.488;0.152;2023-10-08T02:08:33;17.50;99.90
29731;DHT22;16639;51.488;0.152;2023-10-08T02:11:00;17.40;99.90
29731;DHT22;16639;51.488;0.152;2023-10-08T02:13:29;17.40;99.90
29731;DHT22;16639;51.488;0.152;2023-10-08T02:15:57;17.40;99.90
29731;DHT22;16639;51.488;0.152;2023-10-08T02:18:25;17.40;99.90
29731;DHT22;16639;51.488;0.152;2023-10-08T02:20:53;17.50;99.90
29731;DHT22;16639;51.488;0.152;2023-10-08T02:23:22;17.40;99.90
29731;DHT22;16639;51.488;0.152;2023-10-08T02:25:49;17.40;99.90
29731;DHT22;16639;51.488;0.152;2023-10-08T02:28:16;17.40;99.90
29731;DHT22;16639;51.488;0.152;2023-10-08T02:30:47;17.40;99.90
29731;DHT22;16639;51.488;0.152;2023-10-08T02:33:14;17.40;99.90
29731;DHT22;16639;51.488;0.152;2023-10-08T02:35:45;17.40;99.90
29731;DHT22;16639;51.488;0.152;2023-10-08T02:38:17;17.40;99.90
29731;DHT22;16639;51.488;0.152;2023-10-08T02:40:49;17.40;99.90
29731;DHT22;16639;51.488;0.152;2023-10-08T02:43:16;16.80;99.90
29731;DHT22;16639;51.488;0.152;2023-10-08T02:45:45;17.40;99.90
29731;DHT22;16639;51.488;0.152;2023-10-08T02:48:18;17.40;99.90
29731;DHT22;16639;51.488;0.152;2023-10-08T02:50:48;17.40;99.90
29731;DHT22;16639;51.488;0.152;2023-10-08T02:53:15;17.40;99.90
29731;DHT22;16639;51.488;0.152;2023-10-08T02:55:48;17.40;99.90
29731;DHT22;16639;51.488;0.152;2023-10-08T02:58:17;17.30;99.90
29731;DHT22;16639;51.488;0.152;2023-10-08T03:00:48;17.30;99.90
29731;DHT22;16639;51.488;0.152;2023-10-08T03:03:16;17.30;99.90
29731;DHT22;16639;51.488;0.152;2023-10-08T03:05:48;17.30;99.90
29731;DHT22;16639;51.488;0.152;2023-10-08T03:08:17;18.60;99.90
29731;DHT22;16639;51.488;0.152;2023-10-08T03:10:53;17.30;99.90
29731;DHT22;16639;51.488;0.152;2023-10-08T03:13:24;17.30;99.90
29731;DHT22;16639;51.488;0.152;2023-10-08T03:15:54;17.30;99.90
29731;DHT22;16639;51.488;0.152;2023-10-08T03:18:29;17.20;99.90
29731;DHT22;16639;51.488;0.152;2023-10-08T03:21:04;17.20;99.90
29731;DHT22;16639;51.488;0.152;2023-10-08T03:23:32;17.10;99.90
29731;DHT22;16639;51.488;0.152;2023-10-08T03:26:04;17.10;99.90
29731;DHT22;16639;51.488;0.152;2023-10-08T03:28:38;17.00;99.90
29731;DHT22;16639;51.488;0.152;2023-10-08T03:31:09;17.50;99.90
29731;DHT22;16639;51.488;0.152;2023-10-08T03:33:44;16.90;99.90
29731;DHT22;16639;51.488;0.152;2023-10-08T03:36:16;16.80;99.90
29731;DHT22;16639;51.488;0.152;2023-10-08T03:39:01;16.80;99.90
29731;DHT22;16639;51.488;0.152;2023-10-08T03:41:39;16.80;99.90
29731;DHT22;16639;51.488;0.152;2023-10-08T03:44:10;16.60;99.90
29731;DHT22;16639;51.488;0.152;2023-10-08T03:46:40;16.60;99.90
29731;DHT22;16639;51.488;0.152;2023-10-08T03:49:10;16.50;99.90
29731;DHT22;16639;51.488;0.152;2023-10-08T03:51:51;16.50;99.90
29731;DHT22;16639;51.488;0.152;2023-10-08T03:54:24;16.50;99.90
29731;DHT22;16639;51.488;0.152;2023-10-08T03:57:02;16.40;99.90
29731;DHT22;16639;51.488;0.152;2023-10-08T03:59:40;16.40;99.90
29731;DHT22;16639;51.488;0.152;2023-10-08T04:02:09;16.40;99.90
29731;DHT22;16639;51.488;0.152;2023-10-08T04:04:49;16.40;99.90
29731;DHT22;16639;51.488;0.152;2023-10-08T04:07:25;16.30;99.90
29731;DHT22;16639;51.488;0.152;2023-10-08T04:10:28;16.40;99.90
29731;DHT22;16639;51.488;0.152;2023-10-08T04:13:09;16.30;99.90
29731;DHT22;16639;51.488;0.152;2023-10-08T04:15:37;16.40;99.90
29731;DHT22;16639;51.488;0.152;2023-10-08T04:18:09;16.30;99.90
29731;DHT22;16639;51.488;0.152;2023-10-08T04:20:37;16.30;99.90
29731;DHT22;16639;51.488;0.152;2023-10-08T04:23:09;16.20;99.90
29731;DHT22;16639;51.488;0.152;2023-10-08T04:25:48;16.20;99.90
29731;DHT22;16639;51.488;0.152;2023-10-08T04:28:25;16.20;99.90
29731;DHT22;16639;51.488;0.152;2023-10-08T04:30:56;16.10;99.90
29731;DHT22;16639;51.488;0.152;2023-10-08T04:33:28;16.20;99.90
29731;DHT22;16639;51.488;0.152;2023-10-08T04:36:01;16.10;99.90
29731;DHT22;16639;51.488;0.152;2023-10-08T04:38:29;16.10;99.90
29731;DHT22;16639;51.488;0.152;2023-10-08T04:40:57;16.00;99.90
29731;DHT22;16639;51.488;0.152;2023-10-08T04:43:30;16.20;99.90
29731;DHT22;16639;51.488;0.152;2023-10-08T04:45:58;16.00;99.90
29731;DHT22;16639;51.488;0.152;2023-10-08T04:48:27;16.00;99.90
29731;DHT22;16639;51.488;0.152;2023-10-08T04:50:59;16.00;99.90
29731;DHT22;16639;51.488;0.152;2023-10-08T04:53:29;16.00;99.90
29731;DHT22;16639;51.488;0.152;2023-10-08T04:56:05;16.00;99.90
29731;DHT22;16639;51.488;0.152;2023-10-08T04:58:34;16.00;99.90
29731;DHT22;16639;51.488;0.152;2023-10-08T05:01:04;16.00;99.90
29731;DHT22;16639;51.488;0.152;2023-10-08T05:03:52;16.00;99.90
29731;DHT22;16639;51.488;0.152;2023-10-08T05:06:31;16.00;99.90
29731;DHT22;16639;51.488;0.152;2023-10-08T05:09:06;16.00;99.90
29731;DHT22;16639;51.488;0.152;2023-10-08T05:11:46;16.10;99.90
29731;DHT22;16639;51.488;0.152;2023-10-08T05:14:19;16.10;99.90
29731;DHT22;16639;51.488;0.152;2023-10-08T05:17:02;16.10;99.90
29731;DHT22;16639;51.488;0.152;2023-10-08T05:19:32;16.30;99.90
29731;DHT22;16639;51.488;0.152;2023-10-08T05:22:09;16.10;99.90
29731;DHT22;16639;51.488;0.152;2023-10-08T05:25:05;16.10;99.90
29731;DHT22;16639;51.488;0.152;2023-10-08T05:27:46;15.90;99.90
29731;DHT22;16639;51.488;0.152;2023-10-08T05:30:22;16.10;99.90
29731;DHT22;16639;51.488;0.152;2023-10-08T05:32:56;16.10;99.90
29731;DHT22;16639;51.488;0.152;2023-10-08T05:35:44;16.20;99.90
29731;DHT22;16639;51.488;0.152;2023-10-08T05:38:13;16.10;99.90
29731;DHT22;16639;51.488;0.152;2023-10-08T05:40:43;16.10;99.90
29731;DHT22;16639;51.488;0.152;2023-10-08T05:43:34;16.20;99.90
29731;DHT22;16639;51.488;0.152;2023-10-08T05:46:13;16.00;99.90
29731;DHT22;16639;51.488;0.152;2023-10-08T05:48:53;16.10;99.90
29731;DHT22;16639;51.488;0.152;2023-10-08T05:51:43;16.10;99.90
29731;DHT22;16639;51.488;0.152;2023-10-08T05:57:05;16.10;99.90
29731;DHT22;16639;51.488;0.152;2023-10-08T05:59:48;16.10;99.90
29731;DHT22;16639;51.488;0.152;2023-10-08T06:02:29;16.00;99.90
29731;DHT22;16639;51.488;0.152;2023-10-08T06:05:06;16.00;99.90
29731;DHT22;16639;51.488;0.152;2023-10-08T06:13:04;15.80;99.90
29731;DHT22;16639;51.488;0.152;2023-10-08T06:15:45;15.80;99.90
29731;DHT22;16639;51.488;0.152;2023-10-08T06:18:19;16.00;99.90
29731;DHT22;16639;51.488;0.152;2023-10-08T06:20:47;15.70;99.90
29731;DHT22;16639;51.488;0.152;2023-10-08T06:23:16;15.70;99.90
29731;DHT22;16639;51.488;0.152;2023-10-08T06:25:46;15.70;99.90
29731;DHT22;16639;51.488;0.152;2023-10-08T06:28:15;15.70;99.90
29731;DHT22;16639;51.488;0.152;2023-10-08T06:30:47;15.70;99.90
29731;DHT22;16639;51.488;0.152;2023-10-08T06:33:16;15.60;99.90
29731;DHT22;16639;51.488;0.152;2023-10-08T06:35:47;15.70;99.90
29731;DHT22;16639;51.488;0.152;2023-10-08T06:38:31;15.70;99.90
29731;DHT22;16639;51.488;0.152;2023-10-08T06:41:04;15.60;99.90
29731;DHT22;16639;51.488;0.152;2023-10-08T06:44:12;15.60;99.90
29731;DHT22;16639;51.488;0.152;2023-10-08T06:46:42;15.60;99.90
29731;DHT22;16639;51.488;0.152;2023-10-08T06:49:10;15.60;99.90
29731;DHT22;16639;51.488;0.152;2023-10-08T06:51:42;15.60;99.90
29731;DHT22;16639;51.488;0.152;2023-10-08T06:54:11;15.70;99.90
29731;DHT22;16639;51.488;0.152;2023-10-08T06:56:45;15.60;99.90
29731;DHT22;16639;51.488;0.152;2023-10-08T06:59:30;15.60;99.90
29731;DHT22;16639;51.488;0.152;2023-10-08T07:01:59;15.60;99.90
29731;DHT22;16639;51.488;0.152;2023-10-08T07:04:26;15.60;99.90
29731;DHT22;16639;51.488;0.152;2023-10-08T07:06:54;15.60;99.90
29731;DHT22;16639;51.488;0.152;2023-10-08T07:09:22;15.60;99.90
29731;DHT22;16639;51.488;0.152;2023-10-08T07:11:50;15.70;99.90
29731;DHT22;16639;51.488;0.152;2023-10-08T07:14:27;15.60;99.90
29731;DHT22;16639;51.488;0.152;2023-10-08T07:16:56;15.60;99.90
29731;DHT22;16639;51.488;0.152;2023-10-08T07:19:30;15.60;99.90
29731;DHT22;16639;51.488;0.152;2023-10-08T07:22:07;15.70;99.90
29731;DHT22;16639;51.488;0.152;2023-10-08T07:24:51;15.70;99.90
29731;DHT22;16639;51.488;0.152;2023-10-08T07:27:21;15.70;99.90
29731;DHT22;16639;51.488;0.152;2023-10-08T07:30:00;15.70;99.90
29731;DHT22;16639;51.488;0.152;2023-10-08T07:32:30;15.70;99.90
29731;DHT22;16639;51.488;0.152;2023-10-08T07:34:58;15.70;99.90
29731;DHT22;16639;51.488;0.152;2023-10-08T07:37:46;15.70;99.90
29731;DHT22;16639;51.488;0.152;2023-10-08T07:40:14;15.80;99.90
29731;DHT22;16639;51.488;0.152;2023-10-08T07:42:42;15.80;99.90
29731;DHT22;16639;51.488;0.152;2023-10-08T07:45:11;15.90;99.90
29731;DHT22;16639;51.488;0.152;2023-10-08T07:47:45;15.80;99.90
29731;DHT22;16639;51.488;0.152;2023-10-08T07:50:12;16.00;99.90
29731;DHT22;16639;51.488;0.152;2023-10-08T07:52:41;16.00;99.90
29731;DHT22;16639;51.488;0.152;2023-10-08T07:55:11;16.10;99.90
29731;DHT22;16639;51.488;0.152;2023-10-08T07:57:51;16.10;99.90
29731;DHT22;16639;51.488;0.152;2023-10-08T08:00:19;16.90;99.90
29731;DHT22;16639;51.488;0.152;2023-10-08T08:02:51;16.20;99.90
29731;DHT22;16639;51.488;0.152;2023-10-08T08:05:20;16.30;99.90
29731;DHT22;16639;51.488;0.152;2023-10-08T08:07:48;16.30;99.90
29731;DHT22;16639;51.488;0.152;2023-10-08T08:10:20;16.30;99.90
29731;DHT22;16639;51.488;0.152;2023-10-08T08:12:51;16.40;99.90
29731;DHT22;16639;51.488;0.152;2023-10-08T08:15:23;16.40;99.90
29731;DHT22;16639;51.488;0.152;2023-10-08T08:17:54;16.40;99.90
29731;DHT22;16639;51.488;0.152;2023-10-08T08:20:22;16.50;99.90
29731;DHT22;16639;51.488;0.152;2023-10-08T08:22:57;16.50;99.90
29731;DHT22;16639;51.488;0.152;2023-10-08T08:25:40;16.50;99.90
29731;DHT22;16639;51.488;0.152;2023-10-08T08:28:22;16.60;99.90
29731;DHT22;16639;51.488;0.152;2023-10-08T08:30:52;16.60;99.90
29731;DHT22;16639;51.488;0.152;2023-10-08T08:33:24;16.90;99.90
29731;DHT22;16639;51.488;0.152;2023-10-08T08:35:59;16.70;99.90
29731;DHT22;16639;51.488;0.152;2023-10-08T08:38:28;16.70;99.90
29731;DHT22;16639;51.488;0.152;2023-10-08T08:41:06;16.70;99.90
29731;DHT22;16639;51.488;0.152;2023-10-08T08:43:35;16.80;99.90
29731;DHT22;16639;51.488;0.152;2023-10-08T08:46:04;16.90;99.90
29731;DHT22;16639;51.488;0.152;2023-10-08T08:48:43;16.90;99.90
29731;DHT22;16639;51.488;0.152;2023-10-08T08:51:11;16.90;99.90
29731;DHT22;16639;51.488;0.152;2023-10-08T08:53:41;17.00;99.90
29731;DHT22;16639;51.488;0.152;2023-10-08T08:56:09;17.00;99.90
29731;DHT22;16639;51.488;0.152;2023-10-08T08:58:37;17.10;99.90
29731;DHT22;16639;51.488;0.152;2023-10-08T09:01:07;17.20;99.90
29731;DHT22;16639;51.488;0.152;2023-10-08T09:03:36;17.20;99.90
29731;DHT22;16639;51.488;0.152;2023-10-08T09:06:04;17.50;99.90
29731;DHT22;16639;51.488;0.152;2023-10-08T09:08:37;17.30;99.90
29731;DHT22;16639;51.488;0.152;2023-10-08T09:11:04;17.40;99.90
29731;DHT22;16639;51.488;0.152;2023-10-08T09:13:32;17.50;99.90
29731;DHT22;16639;51.488;0.152;2023-10-08T09:16:16;17.50;99.90
29731;DHT22;16639;51.488;0.152;2023-10-08T09:18:46;17.60;99.90
29731;DHT22;16639;51.488;0.152;2023-10-08T09:21:16;17.60;99.90
29731;DHT22;16639;51.488;0.152;2023-10-08T09:23:51;17.70;99.90
29731;DHT22;16639;51.488;0.152;2023-10-08T09:26:23;17.70;99.90
29731;DHT22;16639;51.488;0.152;2023-10-08T09:28:51;18.00;99.90
29731;DHT22;16639;51.488;0.152;2023-10-08T09:31:23;17.90;99.90
29731;DHT22;16639;51.488;0.152;2023-10-08T09:33:54;17.80;99.90
29731;DHT22;16639;51.488;0.152;2023-10-08T09:36:23;17.90;99.90
29731;DHT22;16639;51.488;0.152;2023-10-08T09:39:03;17.90;99.90
29731;DHT22;16639;51.488;0.152;2023-10-08T09:41:34;18.00;99.90
29731;DHT22;16639;51.488;0.152;2023-10-08T09:44:05;18.00;99.90
29731;DHT22;16639;51.488;0.152;2023-10-08T09:46:33;18.10;99.90
29731;DHT22;16639;51.488;0.152;2023-10-08T09:49:04;18.20;99.90
29731;DHT22;16639;51.488;0.152;2023-10-08T09:51:38;18.20;99.90
29731;DHT22;16639;51.488;0.152;2023-10-08T09:54:11;18.20;99.90
29731;DHT22;16639;51.488;0.152;2023-10-08T09:56:41;18.20;99.90
29731;DHT22;16639;51.488;0.152;2023-10-08T09:59:12;18.30;99.90
29731;DHT22;16639;51.488;0.152;2023-10-08T10:01:43;18.30;99.90
29731;DHT22;16639;51.488;0.152;2023-10-08T10:04:12;18.30;99.90
29731;DHT22;16639;51.488;0.152;2023-10-08T10:06:42;18.30;99.90
29731;DHT22;16639;51.488;0.152;2023-10-08T10:09:20;18.30;99.90
29731;DHT22;16639;51.488;0.152;2023-10-08T10:11:49;18.40;99.90
29731;DHT22;16639;51.488;0.152;2023-10-08T10:14:17;18.40;99.90
29731;DHT22;16639;51.488;0.152;2023-10-08T10:16:49;18.40;99.90
29731;DHT22;16639;51.488;0.152;2023-10-08T10:19:32;18.50;99.90
29731;DHT22;16639;51.488;0.152;2023-10-08T10:22:00;18.50;99.90
29731;DHT22;16639;51.488;0.152;2023-10-08T10:24:33;18.60;99.90
29731;DHT22;16639;51.488;0.152;2023-10-08T10:27:11;18.60;99.90
29731;DHT22;16639;51.488;0.152;2023-10-08T10:29:38;18.60;99.90
29731;DHT22;16639;51.488;0.152;2023-10-08T10:32:06;18.60;99.90
29731;DHT22;16639;51.488;0.152;2023-10-08T10:34:38;18.60;99.90
29731;DHT22;16639;51.488;0.152;2023-10-08T10:37:07;18.60;99.90
29731;DHT22;16639;51.488;0.152;2023-10-08T10:39:52;18.70;99.90
29731;DHT22;16639;51.488;0.152;2023-10-08T10:42:22;18.70;99.90
29731;DHT22;16639;51.488;0.152;2023-10-08T10:44:50;18.70;99.90
29731;DHT22;16639;51.488;0.152;2023-10-08T10:47:18;18.80;99.90
29731;DHT22;16639;51.488;0.152;2023-10-08T10:49:50;18.80;99.90
29731;DHT22;16639;51.488;0.152;2023-10-08T10:52:26;18.80;99.90
29731;DHT22;16639;51.488;0.152;2023-10-08T10:55:03;18.90;99.90
29731;DHT22;16639;51.488;0.152;2023-10-08T11:00:43;18.90;99.90
29731;DHT22;16639;51.488;0.152;2023-10-08T11:03:11;19.00;99.90
29731;DHT22;16639;51.488;0.152;2023-10-08T11:05:54;19.10;99.90
29731;DHT22;16639;51.488;0.152;2023-10-08T11:08:22;19.10;99.90
29731;DHT22;16639;51.488;0.152;2023-10-08T11:10:52;19.20;99.90
29731;DHT22;16639;51.488;0.152;2023-10-08T11:13:23;19.20;99.90
29731;DHT22;16639;51.488;0.152;2023-10-08T11:15:56;19.30;99.90
29731;DHT22;16639;51.488;0.152;2023-10-08T11:18:26;19.30;99.90
29731;DHT22;16639;51.488;0.152;2023-10-08T11:21:08;19.50;99.90
29731;DHT22;16639;51.488;0.152;2023-10-08T11:23:47;19.50;99.90
29731;DHT22;16639;51.488;0.152;2023-10-08T11:26:23;19.50;99.90
29731;DHT22;16639;51.488;0.152;2023-10-08T11:29:01;19.50;99.90
29731;DHT22;16639;51.488;0.152;2023-10-08T11:31:30;19.50;99.90
29731;DHT22;16639;51.488;0.152;2023-10-08T11:34:03;19.60;99.90
29731;DHT22;16639;51.488;0.152;2023-10-08T11:36:37;19.60;99.90
29731;DHT22;16639;51.488;0.152;2023-10-08T11:39:17;19.60;99.90
29731;DHT22;16639;51.488;0.152;2023-10-08T11:42:01;19.60;99.90
29731;DHT22;16639;51.488;0.152;2023-10-08T11:44:32;19.70;99.90
29731;DHT22;16639;51.488;0.152;2023-10-08T11:47:05;19.70;99.90
29731;DHT22;16639;51.488;0.152;2023-10-08T11:49:40;19.70;99.90
29731;DHT22;16639;51.488;0.152;2023-10-08T11:52:15;19.70;99.90
29731;DHT22;16639;51.488;0.152;2023-10-08T11:54:44;19.80;99.90
29731;DHT22;16639;51.488;0.152;2023-10-08T11:57:11;19.80;99.90
29731;DHT22;16639;51.488;0.152;2023-10-08T11:59:39;19.90;99.90
29731;DHT22;16639;51.488;0.152;2023-10-08T12:02:07;19.90;99.90
29731;DHT22;16639;51.488;0.152;2023-10-08T12:04:34;19.90;99.90
29731;DHT22;16639;51.488;0.152;2023-10-08T12:07:03;20.00;99.90
29731;DHT22;16639;51.488;0.152;2023-10-08T12:09:34;20.00;99.90
29731;DHT22;16639;51.488;0.152;2023-10-08T12:12:05;20.00;99.90
29731;DHT22;16639;51.488;0.152;2023-10-08T12:14:36;19.90;99.90
29731;DHT22;16639;51.488;0.152;2023-10-08T12:17:05;20.00;99.90
29731;DHT22;16639;51.488;0.152;2023-10-08T12:19:39;20.00;99.90
29731;DHT22;16639;51.488;0.152;2023-10-08T12:22:10;20.00;99.90
29731;DHT22;16639;51.488;0.152;2023-10-08T12:24:42;20.10;99.90
29731;DHT22;16639;51.488;0.152;2023-10-08T12:27:11;20.20;99.90
29731;DHT22;16639;51.488;0.152;2023-10-08T12:29:39;20.20;99.90
29731;DHT22;16639;51.488;0.152;2023-10-08T12:32:07;20.50;99.90
29731;DHT22;16639;51.488;0.152;2023-10-08T12:34:45;20.30;99.90
29731;DHT22;16639;51.488;0.152;2023-10-08T12:37:12;20.30;99.90
29731;DHT22;16639;51.488;0.152;2023-10-08T12:39:42;20.40;99.90
29731;DHT22;16639;51.488;0.152;2023-10-08T12:42:27;20.40;99.90
29731;DHT22;16639;51.488;0.152;2023-10-08T12:44:54;20.40;99.90
29731;DHT22;16639;51.488;0.152;2023-10-08T12:47:25;20.40;99.90
29731;DHT22;16639;51.488;0.152;2023-10-08T12:49:56;20.40;99.90
29731;DHT22;16639;51.488;0.152;2023-10-08T12:52:25;20.40;99.90
29731;DHT22;16639;51.488;0.152;2023-10-08T12:54:55;20.50;99.90
29731;DHT22;16639;51.488;0.152;2023-10-08T12:57:25;20.50;99.90
29731;DHT22;16639;51.488;0.152;2023-10-08T13:00:05;20.50;99.90
29731;DHT22;16639;51.488;0.152;2023-10-08T13:02:34;20.60;99.90
29731;DHT22;16639;51.488;0.152;2023-10-08T13:05:06;20.60;99.90
29731;DHT22;16639;51.488;0.152;2023-10-08T13:07:43;20.50;99.90
29731;DHT22;16639;51.488;0.152;2023-10-08T13:10:12;21.00;99.90
29731;DHT22;16639;51.488;0.152;2023-10-08T13:12:42;20.70;99.90
29731;DHT22;16639;51.488;0.152;2023-10-08T13:15:09;20.80;99.90
29731;DHT22;16639;51.488;0.152;2023-10-08T13:17:37;20.80;99.90
29731;DHT22;16639;51.488;0.152;2023-10-08T13:20:05;20.80;99.90
29731;DHT22;16639;51.488;0.152;2023-10-08T13:22:39;20.90;99.90
29731;DHT22;16639;51.488;0.152;2023-10-08T13:25:07;20.90;99.90
29731;DHT22;16639;51.488;0.152;2023-10-08T13:27:35;20.90;99.90
29731;DHT22;16639;51.488;0.152;2023-10-08T13:30:07;21.00;99.90
29731;DHT22;16639;51.488;0.152;2023-10-08T13:32:38;21.00;99.90
29731;DHT22;16639;51.488;0.152;2023-10-08T13:35:06;20.80;99.90
29731;DHT22;16639;51.488;0.152;2023-10-08T13:37:38;21.10;99.90
29731;DHT22;16639;51.488;0.152;2023-10-08T13:40:07;21.10;99.90
29731;DHT22;16639;51.488;0.152;2023-10-08T13:42:34;21.10;99.90
29731;DHT22;16639;51.488;0.152;2023-10-08T13:45:02;21.10;99.90
29731;DHT22;16639;51.488;0.152;2023-10-08T13:47:35;21.00;99.90
29731;DHT22;16639;51.488;0.152;2023-10-08T13:50:06;21.00;99.90
29731;DHT22;16639;51.488;0.152;2023-10-08T13:52:38;21.10;99.90
29731;DHT22;16639;51.488;0.152;2023-10-08T13:55:07;21.10;99.90
29731;DHT22;16639;51.488;0.152;2023-10-08T13:57:40;21.10;99.90
29731;DHT22;16639;51.488;0.152;2023-10-08T14:00:12;21.10;99.90
29731;DHT22;16639;51.488;0.152;2023-10-08T14:02:43;21.10;99.90
29731;DHT22;16639;51.488;0.152;2023-10-08T14:05:11;21.20;99.90
29731;DHT22;16639;51.488;0.152;2023-10-08T14:07:42;21.20;99.90
29731;DHT22;16639;51.488;0.152;2023-10-08T14:10:11;21.20;99.90
29731;DHT22;16639;51.488;0.152;2023-10-08T14:12:46;21.20;99.90
29731;DHT22;16639;51.488;0.152;2023-10-08T14:15:17;21.20;99.90
29731;DHT22;16639;51.488;0.152;2023-10-08T14:17:45;21.20;99.90
29731;DHT22;16639;51.488;0.152;2023-10-08T14:20:16;21.20;99.90
29731;DHT22;16639;51.488;0.152;2023-10-08T14:22:49;21.20;99.90
29731;DHT22;16639;51.488;0.152;2023-10-08T14:25:28;21.20;99.90
29731;DHT22;16639;51.488;0.152;2023-10-08T14:28:00;21.30;99.90
29731;DHT22;16639;51.488;0.152;2023-10-08T14:30:49;21.30;99.90
29731;DHT22;16639;51.488;0.152;2023-10-08T14:33:20;21.30;99.90
29731;DHT22;16639;51.488;0.152;2023-10-08T14:35:52;21.30;99.90
29731;DHT22;16639;51.488;0.152;2023-10-08T14:38:38;21.30;99.90
29731;DHT22;16639;51.488;0.152;2023-10-08T14:41:24;21.30;99.90
29731;DHT22;16639;51.488;0.152;2023-10-08T14:44:10;21.30;99.90
29731;DHT22;16639;51.488;0.152;2023-10-08T14:46:38;21.30;99.90
29731;DHT22;16639;51.488;0.152;2023-10-08T14:49:07;21.30;99.90
29731;DHT22;16639;51.488;0.152;2023-10-08T14:51:38;21.40;99.90
29731;DHT22;16639;51.488;0.152;2023-10-08T14:54:07;22.60;99.90
29731;DHT22;16639;51.488;0.152;2023-10-08T14:56:35;21.40;99.90
29731;DHT22;16639;51.488;0.152;2023-10-08T14:59:03;21.40;99.90
29731;DHT22;16639;51.488;0.152;2023-10-08T15:01:31;21.20;99.90
29731;DHT22;16639;51.488;0.152;2023-10-08T15:04:01;21.40;99.90
29731;DHT22;16639;51.488;0.152;2023-10-08T15:06:32;21.50;99.90
29731;DHT22;16639;51.488;0.152;2023-10-08T15:09:00;21.40;99.90
29731;DHT22;16639;51.488;0.152;2023-10-08T15:11:29;21.50;99.90
29731;DHT22;16639;51.488;0.152;2023-10-08T15:13:57;21.50;99.90
29731;DHT22;16639;51.488;0.152;2023-10-08T15:16:25;21.50;99.90
29731;DHT22;16639;51.488;0.152;2023-10-08T15:18:53;21.50;99.90
29731;DHT22;16639;51.488;0.152;2023-10-08T15:21:23;21.50;99.90
29731;DHT22;16639;51.488;0.152;2023-10-08T15:23:51;21.50;99.90
29731;DHT22;16639;51.488;0.152;2023-10-08T15:26:19;21.50;99.90
29731;DHT22;16639;51.488;0.152;2023-10-08T15:28:46;21.40;99.90
29731;DHT22;16639;51.488;0.152;2023-10-08T15:31:14;21.40;99.90
29731;DHT22;16639;51.488;0.152;2023-10-08T15:33:41;21.40;99.90
29731;DHT22;16639;51.488;0.152;2023-10-08T15:36:09;21.40;99.90
29731;DHT22;16639;51.488;0.152;2023-10-08T15:38:37;21.40;99.90
29731;DHT22;16639;51.488;0.152;2023-10-08T15:41:05;21.40;99.90
29731;DHT22;16639;51.488;0.152;2023-10-08T15:43:33;21.40;99.90
29731;DHT22;16639;51.488;0.152;2023-10-08T15:46:01;21.30;99.90
29731;DHT22;16639;51.488;0.152;2023-10-08T15:48:29;21.30;99.90
29731;DHT22;16639;51.488;0.152;2023-10-08T15:50:57;21.30;99.90
29731;DHT22;16639;51.488;0.152;2023-10-08T15:53:24;21.20;99.90
29731;DHT22;16639;51.488;0.152;2023-10-08T15:55:53;21.20;99.90
29731;DHT22;16639;51.488;0.152;2023-10-08T15:58:20;21.20;99.90
29731;DHT22;16639;51.488;0.152;2023-10-08T16:00:48;21.20;99.90
29731;DHT22;16639;51.488;0.152;2023-10-08T16:03:15;21.10;99.90
29731;DHT22;16639;51.488;0.152;2023-10-08T16:05:45;21.10;99.90
29731;DHT22;16639;51.488;0.152;2023-10-08T16:08:15;21.10;99.90
29731;DHT22;16639;51.488;0.152;2023-10-08T16:10:42;21.10;99.90
29731;DHT22;16639;51.488;0.152;2023-10-08T16:13:10;21.10;99.90